METAR Data
IDs: Format: Raw Decoded Include TAF

Data at: 1526 UTC 22 Apr 2021

KMTH 221453Z AUTO 03010KT 10SM BKN070 26/17 A3007 RMK AO2 SLP181 T02560172 51012
KMTH 221353Z AUTO 03011KT 10SM BKN065 25/17 A3006 RMK AO2 SLP179 T02500172
KMTH 221253Z AUTO 03010KT 10SM SCT070 24/16 A3005 RMK AO2 SLP173 T02440161
KMTH 221153Z AUTO 02009KT 10SM FEW047 BKN060 23/16 A3003 RMK AO2 SLP169 70001 T02330161 10256 20233 53016
KMTH 221053Z AUTO 02008KT 10SM SCT047 OVC060 23/17 A3002 RMK AO2 SLP164 T02330172
KMTH 220953Z AUTO 01008KT 10SM FEW020 24/20 A3000 RMK AO2 SLP159 T02390200
KMTH 220853Z AUTO 33007KT 10SM CLR 25/20 A2999 RMK AO2 SLP154 T02500200 55003
KMTH 220753Z AUTO 33007KT 10SM CLR 25/21 A2998 RMK AO2 SLP152 T02500206
KMTH 220653Z AUTO 33006KT 10SM CLR 25/21 A2998 RMK AO2 SLP150 T02500206
KMTH 220553Z AUTO 34006KT 10SM CLR 26/21 A3000 RMK AO2 SLP157 T02560211 10261 20250 58004
KMTH 220453Z AUTO 33005KT 10SM SCT050 BKN120 26/21 A3000 RMK AO2 SLP159 T02560211 403000250
KMTH 220353Z AUTO 34005KT 10SM CLR 26/22 A3001 RMK AO2 SLP161 T02560222
KMTH 220253Z AUTO 35006KT 10SM CLR 26/22 A3001 RMK AO2 SLP161 T02560217 50006
KMTH 220153Z AUTO 34006KT 10SM CLR 26/21 A3001 RMK AO2 SLP162 T02560206
KMTH 220053Z AUTO 33010KT 10SM CLR 26/21 A3000 RMK AO2 SLP157 T02560206
KMTH 212353Z AUTO 33010G17KT 10SM CLR 26/22 A2999 RMK AO2 SLP156 T02560217 10289 20256 53009
KMTH 212253Z AUTO 32010KT 9SM CLR 26/22 A2997 RMK AO2 SLP148 T02610217
KMTH 212217Z AUTO 31011G20KT 9SM FEW024 SCT032 26/22 A2998 RMK AO2 T02610222
KMTH 212153Z AUTO 30011G17KT 9SM SCT015 OVC021 27/22 A2997 RMK AO2 SLP147 T02720222
KMTH 212138Z AUTO 28006KT 9SM BKN015 BKN026 27/23 A2996 RMK AO2 T02720228
KMTH 212127Z AUTO 28006KT 9SM FEW015 SCT026 28/23 A2996 RMK AO2 T02780233
KMTH 212053Z AUTO 26004KT 9SM SCT018 BKN028 OVC039 28/23 A2997 RMK AO2 SLP147 T02780228 55017
KMTH 212015Z AUTO VRB04KT 8SM BKN019 28/23 A2997 RMK AO2 T02780233
KMTH 211953Z AUTO 23004KT 9SM FEW022 28/23 A2996 RMK AO2 SLP145 T02830233
KMTH 211853Z AUTO 27004KT 9SM FEW021 28/23 A2999 RMK AO2 SLP155 T02830228
KMTH 211753Z AUTO 30005KT 8SM FEW036 28/23 A3002 RMK AO2 SLP164 60001 T02830233 10300 20261 58001
KMTH 211653Z AUTO 28005KT 8SM SCT028 BKN036 27/23 A3003 RMK AO2 RAB26E45 TSE1559 SLP167 P0001 T02670233
KMTH 211614Z AUTO 26005KT 9SM FEW017 SCT022 BKN037 27/22 A3003 RMK AO2 TSE1559 T02720217
KMTH 211605Z AUTO 29009KT 8SM SCT017 BKN022 OVC043 26/22 A3003 RMK AO2 TSE1559 T02610217
KMTH 211553Z AUTO 33005KT 8SM TS SCT017 BKN026 27/23 A3002 RMK AO2 TSB44 SLP166 T02720233
KMTH 211544Z AUTO 33004KT 8SM TS FEW015 SCT024 BKN028 28/23 A3002 RMK AO2 TSB44 T02780233
KMTH 211533Z AUTO 27007KT 8SM VCTS FEW028 29/23 A3002 RMK AO2 T02890233
KMTH 211453Z AUTO 28008KT 8SM SCT020 29/23 A3002 RMK AO2 LTG DSNT NE SLP165 T02890233 53013
KMTH 211353Z AUTO 24005KT 7SM FEW017 FEW025 SCT036 28/23 A3000 RMK AO2 SLP160 T02780233
KMTH 211253Z AUTO 23005KT 7SM CLR 27/23 A2999 RMK AO2 SLP156 T02720233
KMTH 211153Z AUTO 22004KT 6SM HZ CLR 27/24 A2998 RMK AO2 LTG DSNT NE SLP152 T02670239 10267 20261 53006
KMTH 211053Z AUTO 21005KT 7SM SCT039 26/23 A2997 RMK AO2 SLP148 T02610233
KMTH 210953Z AUTO 23004KT 7SM FEW018 SCT036 BKN046 26/23 A2996 RMK AO2 SLP146 T02610233
KMTH 210951Z AUTO 23004KT 7SM FEW018 SCT027 BKN046 26/23 A2996 RMK AO2
KMTH 210938Z AUTO 23004KT 7SM SCT018 BKN024 BKN031 27/23 A2996 RMK AO2 T02670233
KMTH 210908Z AUTO 00000KT 8SM FEW018 BKN031 26/24 A2996 RMK AO2 T02610239
KMTH 210853Z AUTO 23003KT 8SM SCT018 BKN027 BKN032 27/24 A2996 RMK AO2 SLP144 T02670239 55002
KMTH 210816Z AUTO 19003KT 8SM SCT020 BKN025 26/24 A2996 RMK AO2 T02610239
KMTH 210753Z AUTO VRB03KT 8SM SCT020 26/24 A2995 RMK AO2 SLP142 T02610239
KMTH 210744Z AUTO 16004KT 8SM FEW020 FEW028 26/24 A2995 RMK AO2 T02610239
KMTH 210713Z AUTO 18004KT 8SM BKN022 26/24 A2996 RMK AO2 T02610239
KMTH 210653Z AUTO 18005KT 8SM CLR 26/24 A2996 RMK AO2 SLP144 T02610239
KMTH 210553Z AUTO 16004KT 8SM CLR 27/24 A2996 RMK AO2 SLP146 T02670239 10267 20261 58003
KMTH 210453Z AUTO 00000KT 7SM FEW020 27/24 A2998 RMK AO2 SLP151 T02670239 402780228
KMTH 210353Z AUTO 17007KT 7SM CLR 27/24 A2996 RMK AO2 SLP146 T02670239